Time;durP1;ratioP1;P1;durP2;ratioP2;P2;SDS_P1;SDS_P2;PMS_P1;PMS_P2;Temp;Humidity;BMP_temperature;BMP_pressure;BME280_temperature;BME280_humidity;BME280_pressure;Samples;Min_cycle;Max_cycle;Signal;HPM_P1;HPM_P2
2022/12/26 00:01:25;;;;;;;2.85;1.80;;;;;;;5.59;100.00;93261.63;5057850;28;20033;-77
2022/12/26 00:03:52;;;;;;;3.10;1.90;;;;;;;5.60;100.00;93258.00;5041879;28;20041;-78
2022/12/26 00:06:21;;;;;;;3.08;1.80;;;;;;;5.60;100.00;93257.22;5056821;28;20506;-77
2022/12/26 00:08:47;;;;;;;2.42;1.70;;;;;;;5.58;100.00;93249.69;5059508;28;20032;-78
2022/12/26 00:11:13;;;;;;;2.90;1.70;;;;;;;5.63;100.00;93247.16;5059866;28;20041;-78
2022/12/26 00:13:40;;;;;;;2.88;1.80;;;;;;;5.63;100.00;93257.53;5059241;28;20364;-80
2022/12/26 00:16:14;;;;;;;3.00;1.80;;;;;;;5.62;100.00;93255.16;5060026;28;20041;-78
2022/12/26 00:18:41;;;;;;;2.67;1.60;;;;;;;5.62;100.00;93244.78;5059328;28;20094;-78
2022/12/26 00:21:10;;;;;;;4.78;1.75;;;;;;;5.63;100.00;93252.34;5025846;28;20033;-78
2022/12/26 00:23:37;;;;;;;2.78;1.60;;;;;;;5.61;100.00;93249.19;5025134;28;20029;-78
2022/12/26 00:26:04;;;;;;;2.35;1.50;;;;;;;5.63;100.00;93246.38;5058538;28;20032;-78
2022/12/26 00:28:30;;;;;;;2.30;1.60;;;;;;;5.66;100.00;93250.31;5059427;28;20538;-78
2022/12/26 00:30:55;;;;;;;3.10;1.40;;;;;;;5.66;100.00;93250.31;5043122;28;20049;-78
2022/12/26 00:33:21;;;;;;;2.72;1.60;;;;;;;5.68;100.00;93250.84;5058211;28;20071;-79
2022/12/26 00:35:46;;;;;;;2.50;1.60;;;;;;;5.69;100.00;93244.63;5060083;28;20124;-78
2022/12/26 00:38:12;;;;;;;2.67;1.58;;;;;;;5.69;100.00;93244.63;5042620;28;20067;-79
2022/12/26 00:40:42;;;;;;;2.92;1.60;;;;;;;5.68;100.00;93243.06;5026137;28;20125;-79
2022/12/26 00:43:08;;;;;;;1.98;1.50;;;;;;;5.70;100.00;93246.22;5044116;28;20517;-79
2022/12/26 00:45:35;;;;;;;1.90;1.40;;;;;;;5.70;100.00;93249.59;5041826;28;20069;-79
2022/12/26 00:48:01;;;;;;;3.03;1.50;;;;;;;5.72;100.00;93244.13;5059984;28;20039;-78
2022/12/26 00:50:26;;;;;;;3.10;1.70;;;;;;;5.74;100.00;93247.28;5042272;28;20029;-78
2022/12/26 00:52:52;;;;;;;2.40;1.40;;;;;;;5.73;100.00;93243.91;5041706;28;20048;-79
2022/12/26 00:55:19;;;;;;;2.17;1.50;;;;;;;5.76;100.00;93242.66;5059609;28;20040;-78
2022/12/26 00:57:44;;;;;;;2.63;1.60;;;;;;;5.77;100.00;93249.44;5059807;28;20025;-78
2022/12/26 01:00:10;;;;;;;2.30;1.30;;;;;;;5.78;100.00;93251.78;5041850;28;20100;-78
2022/12/26 01:02:39;;;;;;;2.33;1.40;;;;;;;5.81;100.00;93250.53;5059884;28;20037;-78
2022/12/26 01:05:10;;;;;;;2.65;1.50;;;;;;;5.84;100.00;93256.03;5045692;28;20704;-78
2022/12/26 01:07:38;;;;;;;2.20;1.40;;;;;;;5.86;100.00;93260.22;5065168;28;20032;-78
2022/12/26 01:10:06;;;;;;;2.92;1.50;;;;;;;5.82;100.00;93249.50;5046529;28;20029;-78
2022/12/26 01:12:32;;;;;;;3.72;1.75;;;;;;;5.85;100.00;93259.41;5030105;28;20033;-78
2022/12/26 01:14:58;;;;;;;2.20;1.45;;;;;;;5.86;100.00;93266.19;5063705;28;20115;-78
2022/12/26 01:17:26;;;;;;;2.42;1.50;;;;;;;5.88;100.00;93263.34;5063134;28;20572;-78
2022/12/26 01:19:54;;;;;;;4.18;1.50;;;;;;;5.83;100.00;93258.84;5060407;28;20029;-78
2022/12/26 01:22:21;;;;;;;2.80;1.60;;;;;;;5.90;100.00;93256.09;5026788;28;20483;-78
2022/12/26 01:24:47;;;;;;;2.05;1.30;;;;;;;5.84;100.00;93252.66;5063317;28;20040;-79
2022/12/26 01:27:13;;;;;;;1.98;1.33;;;;;;;5.86;100.00;93250.59;5064198;28;20439;-78
2022/12/26 01:29:38;;;;;;;2.47;1.48;;;;;;;5.90;100.00;93254.31;5063707;28;20074;-78
2022/12/26 01:32:04;;;;;;;2.20;1.42;;;;;;;5.85;100.00;93246.41;5060299;28;20074;-81
2022/12/26 01:34:31;;;;;;;2.45;1.42;;;;;;;5.91;100.00;93258.47;5060340;28;20033;-78
2022/12/26 01:36:57;;;;;;;2.08;1.40;;;;;;;5.93;100.00;93258.22;5062143;28;20513;-79
2022/12/26 01:39:23;;;;;;;2.75;1.50;;;;;;;5.93;100.00;93264.22;5063551;28;20044;-79
2022/12/26 01:41:48;;;;;;;2.17;1.40;;;;;;;5.94;100.00;93258.00;5063831;28;20048;-79
2022/12/26 01:44:51;;;;;;;2.53;1.40;;;;;;;5.95;100.00;93253.63;5063670;28;20033;-79
2022/12/26 01:47:18;;;;;;;;;;;;;;;5.96;100.00;93255.97;5030024;28;20037;-79
2022/12/26 01:49:48;;;;;;;1.63;1.20;;;;;;;5.94;100.00;93250.22;5070642;28;19904;-79
2022/12/26 01:52:29;;;;;;;2.40;1.50;;;;;;;5.97;100.00;93257.56;5074656;28;20097;-78
2022/12/26 01:54:55;;;;;;;2.70;1.52;;;;;;;5.97;100.00;93252.34;5074669;28;20028;-79
2022/12/26 01:57:26;;;;;;;2.05;1.42;;;;;;;5.98;100.00;93260.94;5051286;28;20121;-79
2022/12/26 01:59:54;;;;;;;2.38;1.40;;;;;;;5.98;100.00;93251.31;5064858;28;20121;-79
2022/12/26 02:02:21;;;;;;;1.48;1.17;;;;;;;5.97;100.00;93254.16;5046867;28;20039;-79
2022/12/26 02:07:37;;;;;;;1.38;1.08;;;;;;;6.02;100.00;93262.03;5064266;28;20025;-79
2022/12/26 02:10:07;;;;;;;2.13;1.40;;;;;;;6.03;100.00;93256.59;5063368;28;20044;-79
2022/12/26 02:12:33;;;;;;;2.22;1.30;;;;;;;6.05;100.00;93259.72;5047460;28;20067;-80
2022/12/26 02:15:01;;;;;;;2.17;1.25;;;;;;;6.05;100.00;93264.91;5064142;28;20059;-79
2022/12/26 02:17:27;;;;;;;2.72;1.30;;;;;;;6.03;100.00;93254.00;5063465;28;20029;-79
2022/12/26 02:20:02;;;;;;;3.00;1.30;;;;;;;6.02;100.00;93252.41;5063484;28;20048;-79
2022/12/26 02:23:06;;;;;;;2.42;1.48;;;;;;;6.01;100.00;93255.25;5029520;28;20033;-79
2022/12/26 02:25:59;;;;;;;3.50;1.50;;;;;;;6.01;100.00;93242.25;5046295;28;20678;-79
2022/12/26 02:28:51;;;;;;;2.33;1.42;;;;;;;5.97;100.00;93241.97;5062501;28;20045;-79
2022/12/26 02:31:27;;;;;;;2.15;1.38;;;;;;;5.97;100.00;93246.38;5062768;28;20049;-78
2022/12/26 02:34:30;;;;;;;1.85;1.30;;;;;;;5.96;100.00;93236.97;5062739;28;20032;-79
2022/12/26 02:37:08;;;;;;;;;;;;;;;5.99;100.00;93239.91;5045195;28;20445;-78
2022/12/26 02:40:01;;;;;;;1.77;1.30;;;;;;;5.98;100.00;93233.13;5062411;28;19963;-79
2022/12/26 02:42:57;;;;;;;2.05;1.50;;;;;;;6.02;100.00;93244.63;5044656;28;20099;-79
2022/12/26 02:48:19;;;;;;;1.90;1.40;;;;;;;6.01;100.00;93237.06;5062101;28;20037;-79
2022/12/26 03:15:08;;;;;;;2.13;1.48;;;;;;;5.99;100.00;93219.13;5061353;28;20485;-78
2022/12/26 03:17:48;;;;;;;2.58;1.55;;;;;;;5.99;100.00;93211.31;5060936;28;20375;-78
2022/12/26 03:20:17;;;;;;;2.83;1.30;;;;;;;5.97;100.00;93208.16;5060349;28;20109;-79
2022/12/26 03:22:47;;;;;;;1.92;1.40;;;;;;;5.95;100.00;93210.22;5060793;28;20029;-78
2022/12/26 03:28:07;;;;;;;2.55;1.48;;;;;;;5.95;100.00;93223.22;5061935;28;20451;-78
2022/12/26 03:30:49;;;;;;;3.70;1.45;;;;;;;5.94;100.00;93213.00;5043164;28;20472;-80
2022/12/26 03:36:44;;;;;;;2.25;1.52;;;;;;;5.90;100.00;93217.91;5071936;28;20041;-78
2022/12/26 04:44:14;;;;;;;1.63;1.17;;;;;;;6.14;100.00;93207.34;5053945;28;20525;-79
2022/12/26 04:46:42;;;;;;;1.73;1.20;;;;;;;6.25;100.00;93206.44;5059495;28;20037;-78
2022/12/26 04:51:58;;;;;;;1.60;1.20;;;;;;;6.35;100.00;93214.38;5059861;28;20033;-80
2022/12/26 04:54:24;;;;;;;2.08;1.38;;;;;;;6.37;100.00;93209.72;5041001;28;20040;-78
2022/12/26 04:56:50;;;;;;;2.30;1.33;;;;;;;6.33;100.00;93203.44;5058867;28;20049;-78
2022/12/26 04:59:17;;;;;;;1.88;1.30;;;;;;;6.33;100.00;93215.66;5040839;28;20075;-79
2022/12/26 05:10:27;;;;;;;2.38;1.30;;;;;;;6.10;100.00;93219.22;5057495;28;20040;-78
2022/12/26 05:12:53;;;;;;;2.22;1.48;;;;;;;6.06;100.00;93224.16;5056930;28;20136;-78
2022/12/26 05:15:20;;;;;;;1.80;1.38;;;;;;;6.00;100.00;93220.69;5041163;28;20056;-78
2022/12/26 05:29:02;;;;;;;2.25;1.40;;;;;;;5.88;100.00;93222.56;5059086;28;20064;-77
2022/12/26 05:31:20;;;;;;;1.35;1.20;;;;;;;5.83;100.00;93222.47;5051239;28;20064;-78
2022/12/26 05:36:54;;;;;;;3.10;1.48;;;;;;;5.81;100.00;93217.53;5059829;28;20518;-79
2022/12/26 05:39:19;;;;;;;2.08;1.35;;;;;;;5.78;100.00;93214.63;5041943;28;20033;-78
2022/12/26 05:41:45;;;;;;;1.90;1.25;;;;;;;5.76;100.00;93221.88;5059410;28;20037;-79
2022/12/26 05:44:12;;;;;;;1.75;1.25;;;;;;;5.74;100.00;93221.31;5041835;28;20105;-79
2022/12/26 05:46:38;;;;;;;1.80;1.33;;;;;;;5.72;100.00;93218.16;5060548;28;20041;-79
2022/12/26 05:49:04;;;;;;;2.58;1.50;;;;;;;5.70;100.00;93217.63;5041451;28;20471;-78
2022/12/26 05:51:31;;;;;;;2.00;1.30;;;;;;;5.67;100.00;93218.09;5061410;28;20033;-78
2022/12/26 05:53:58;;;;;;;2.35;1.30;;;;;;;5.67;100.00;93231.09;5063699;28;20098;-78
2022/12/26 05:56:24;;;;;;;1.85;1.30;;;;;;;5.67;100.00;93231.09;5045996;28;20131;-78
2022/12/26 05:58:54;;;;;;;2.10;1.40;;;;;;;5.65;100.00;93228.72;5060958;28;20175;-78
2022/12/26 06:01:20;;;;;;;2.75;1.30;;;;;;;5.66;100.00;93226.91;5060634;28;20025;-78
2022/12/26 06:03:49;;;;;;;2.47;1.50;;;;;;;5.64;100.00;93227.94;5041186;28;20021;-78
2022/12/26 06:06:15;;;;;;;1.80;1.30;;;;;;;5.66;100.00;93235.50;5041091;28;20124;-77
2022/12/26 06:08:41;;;;;;;2.55;1.60;;;;;;;5.66;100.00;93224.31;5057836;28;20041;-79
2022/12/26 06:11:12;;;;;;;1.92;1.30;;;;;;;5.68;100.00;93227.47;5062054;28;20033;-78
2022/12/26 06:13:39;;;;;;;2.35;1.38;;;;;;;5.64;100.00;93227.94;5059770;28;20037;-78
2022/12/26 06:16:06;;;;;;;2.40;1.27;;;;;;;5.67;100.00;93238.88;5059966;28;20087;-78
2022/12/26 06:18:34;;;;;;;3.05;1.40;;;;;;;5.67;100.00;93225.88;5062479;28;20032;-79
2022/12/26 06:21:10;;;;;;;1.55;1.10;;;;;;;5.64;100.00;93235.72;5062547;28;20037;-79
2022/12/26 06:23:36;;;;;;;1.98;1.25;;;;;;;5.64;100.00;93222.75;5062198;28;20502;-78
2022/12/26 06:26:04;;;;;;;1.55;1.23;;;;;;;5.64;100.00;93233.13;5044689;28;20406;-79
2022/12/26 06:28:30;;;;;;;2.03;1.27;;;;;;;5.63;100.00;93220.41;5060247;28;20098;-79
2022/12/26 06:31:08;;;;;;;1.90;1.38;;;;;;;5.62;100.00;93224.00;5062036;28;20590;-78
2022/12/26 06:33:34;;;;;;;1.67;1.33;;;;;;;5.62;100.00;93219.59;5044831;28;20033;-78
2022/12/26 06:36:07;;;;;;;1.35;1.17;;;;;;;5.61;100.00;93225.81;5062127;28;20060;-79
2022/12/26 06:38:33;;;;;;;1.75;1.40;;;;;;;5.61;100.00;93228.41;5061443;28;20072;-78
2022/12/26 06:40:59;;;;;;;2.05;1.38;;;;;;;5.60;100.00;93234.63;5062422;28;20029;-78
2022/12/26 06:43:24;;;;;;;2.80;1.25;;;;;;;5.57;100.00;93227.31;5044188;28;20017;-79
2022/12/26 06:45:57;;;;;;;2.25;1.30;;;;;;;5.58;100.00;93221.09;5061293;28;20041;-78
2022/12/26 06:48:23;;;;;;;1.52;1.25;;;;;;;5.56;100.00;93233.53;5064647;28;20025;-78
2022/12/26 06:50:49;;;;;;;2.88;1.60;;;;;;;5.56;100.00;93223.16;5065477;28;20076;-79
2022/12/26 06:53:15;;;;;;;2.90;1.40;;;;;;;5.57;100.00;93226.53;5065917;28;20124;-79
2022/12/26 06:55:40;;;;;;;2.47;1.38;;;;;;;5.53;100.00;93223.59;5065940;28;20033;-79
2022/12/26 06:58:06;;;;;;;2.17;1.30;;;;;;;5.54;100.00;93227.78;5047210;28;20073;-82
2022/12/26 07:00:33;;;;;;;2.20;1.50;;;;;;;5.56;100.00;93235.31;5048152;28;20377;-81
2022/12/26 07:02:58;;;;;;;1.80;1.30;;;;;;;5.56;100.00;93233.53;5061100;28;20034;-84
2022/12/26 07:06:03;;;;;;;1.92;1.35;;;;;;;5.55;100.00;93234.53;5043597;28;20040;-81
2022/12/26 07:08:29;;;;;;;2.95;1.50;;;;;;;5.56;100.00;93238.72;5027987;28;20040;-82
2022/12/26 07:10:54;;;;;;;2.50;1.30;;;;;;;5.51;100.00;93223.06;5063775;28;20036;-82
2022/12/26 07:13:20;;;;;;;1.58;1.30;;;;;;;5.57;100.00;93232.50;5047153;28;20036;-82
2022/12/26 07:15:46;;;;;;;2.28;1.40;;;;;;;5.58;100.00;93239.28;5063877;28;20055;-82
2022/12/26 07:18:11;;;;;;;1.85;1.40;;;;;;;5.61;100.00;93238.03;5074108;28;20028;-83
2022/12/26 07:20:38;;;;;;;1.63;1.27;;;;;;;5.60;100.00;93247.59;5080687;28;20092;-81
2022/12/26 07:23:03;;;;;;;1.88;1.40;;;;;;;5.63;100.00;93241.16;5048943;28;20021;-85
2022/12/26 07:25:29;;;;;;;2.15;1.30;;;;;;;5.64;100.00;93248.72;5051117;28;20357;-82
2022/12/26 07:27:55;;;;;;;1.73;1.25;;;;;;;5.68;100.00;93250.84;5025167;28;20451;-82
2022/12/26 07:30:22;;;;;;;2.10;1.40;;;;;;;5.67;100.00;93242.25;5033939;28;20037;-84
2022/12/26 07:32:48;;;;;;;1.85;1.30;;;;;;;5.73;100.00;93245.72;5041179;28;20125;-81
2022/12/26 07:35:13;;;;;;;3.83;1.70;;;;;;;5.73;100.00;93246.50;5019284;28;20073;-82
2022/12/26 07:37:39;;;;;;;2.30;1.42;;;;;;;5.77;100.00;93246.84;5037051;28;20060;-81
2022/12/26 07:40:05;;;;;;;2.08;1.30;;;;;;;5.79;100.00;93247.38;5041211;28;20124;-82
2022/12/26 07:42:31;;;;;;;2.10;1.40;;;;;;;5.81;100.00;93247.94;5031591;28;20064;-82
2022/12/26 07:44:57;;;;;;;2.05;1.35;;;;;;;5.86;100.00;93255.03;5021631;28;20038;-81
2022/12/26 07:47:22;;;;;;;1.88;1.30;;;;;;;5.90;100.00;93256.09;5018389;28;20113;-83
2022/12/26 07:49:48;;;;;;;2.00;1.30;;;;;;;5.95;100.00;93258.81;5022270;28;20045;-81
2022/12/26 07:52:15;;;;;;;1.98;1.50;;;;;;;5.99;100.00;93255.50;5036603;28;20057;-81
2022/12/26 07:54:40;;;;;;;2.55;1.60;;;;;;;6.03;100.00;93254.00;5038114;28;20029;-82
2022/12/26 07:57:06;;;;;;;2.25;1.48;;;;;;;6.07;100.00;93256.91;5018875;28;20487;-80
2022/12/26 07:59:32;;;;;;;2.30;1.40;;;;;;;6.12;100.00;93259.56;5036009;28;20599;-80
2022/12/26 08:01:58;;;;;;;2.20;1.40;;;;;;;6.16;100.00;93265.06;5036089;28;20025;-80
2022/12/26 08:04:24;;;;;;;1.85;1.25;;;;;;;6.21;100.00;93259.94;5035949;28;20491;-81
2022/12/26 08:06:50;;;;;;;2.50;1.48;;;;;;;6.28;100.00;93251.97;5018983;28;20056;-80
2022/12/26 08:09:15;;;;;;;2.17;1.30;;;;;;;6.35;100.00;93242.16;5038545;28;20116;-82
2022/12/26 08:11:42;;;;;;;2.67;1.48;;;;;;;6.50;100.00;93241.59;5004109;28;20037;-80
2022/12/26 08:14:12;;;;;;;2.45;1.48;;;;;;;6.68;100.00;93256.88;5039823;28;20061;-80
2022/12/26 08:16:38;;;;;;;1.92;1.30;;;;;;;6.97;100.00;93260.06;5041786;28;20033;-80
2022/12/26 08:19:04;;;;;;;2.85;1.80;;;;;;;7.23;100.00;93262.94;5041280;28;20054;-79
2022/12/26 08:21:30;;;;;;;2.55;1.70;;;;;;;7.68;100.00;93265.16;5023422;28;20491;-80
2022/12/26 08:23:55;;;;;;;3.47;1.85;;;;;;;7.82;100.00;93269.97;5023918;28;20041;-80
2022/12/26 08:26:22;;;;;;;2.90;1.50;;;;;;;8.23;100.00;93257.97;5020420;28;20045;-80
2022/12/26 08:28:50;;;;;;;2.50;1.60;;;;;;;9.00;100.00;93252.31;5050880;28;20052;-80
2022/12/26 08:31:18;;;;;;;3.40;1.92;;;;;;;10.41;95.01;93262.31;5052627;28;20120;-79
2022/12/26 08:33:44;;;;;;;3.50;2.00;;;;;;;11.80;86.95;93271.06;5035855;28;20116;-78
2022/12/26 08:36:12;;;;;;;2.65;1.60;;;;;;;11.48;85.22;93266.28;5053122;28;20065;-78
2022/12/26 08:38:39;;;;;;;2.95;1.52;;;;;;;11.20;82.16;93275.66;5050987;28;20029;-78
2022/12/26 08:41:05;;;;;;;3.80;1.63;;;;;;;10.85;82.28;93277.34;5054134;28;20074;-78
2022/12/26 08:43:31;;;;;;;2.78;1.73;;;;;;;10.85;83.35;93279.97;5060186;28;20041;-78
2022/12/26 08:46:05;;;;;;;3.08;2.03;;;;;;;10.04;88.21;93288.75;5064047;28;20036;-78
2022/12/26 08:48:31;;;;;;;5.00;2.95;;;;;;;10.28;89.85;93270.69;5064738;28;20043;-77
2022/12/26 08:50:58;;;;;;;3.03;1.70;;;;;;;10.80;86.69;93283.41;5054561;28;20025;-78
2022/12/26 08:53:24;;;;;;;3.72;2.10;;;;;;;11.08;86.18;93283.03;5053822;28;20044;-78
2022/12/26 08:55:51;;;;;;;2.53;1.50;;;;;;;10.81;85.29;93284.19;5053387;28;20352;-78
2022/12/26 08:58:16;;;;;;;2.03;1.40;;;;;;;10.38;86.42;93287.19;5053644;28;20096;-78
2022/12/26 09:00:42;;;;;;;2.42;1.30;;;;;;;10.07;86.97;93296.88;5050304;28;20463;-77
2022/12/26 09:03:08;;;;;;;2.58;1.30;;;;;;;9.84;87.38;93292.97;5068924;28;20033;-78
2022/12/26 09:05:33;;;;;;;2.15;1.40;;;;;;;9.88;89.68;93296.59;5052123;28;20029;-79
2022/12/26 09:08:00;;;;;;;2.30;1.40;;;;;;;9.91;88.74;93292.72;5056026;28;20056;-79
2022/12/26 09:10:25;;;;;;;2.25;1.40;;;;;;;9.90;88.36;93304.19;5037714;28;20135;-79
2022/12/26 09:12:51;;;;;;;2.08;1.45;;;;;;;9.79;90.35;93301.59;5037430;28;20087;-79
2022/12/26 09:15:17;;;;;;;2.42;1.65;;;;;;;9.80;89.79;93299.75;5053424;28;20114;-78
2022/12/26 09:17:42;;;;;;;2.25;1.35;;;;;;;9.75;89.97;93299.75;5053724;28;20163;-78
2022/12/26 09:20:08;;;;;;;2.85;1.70;;;;;;;9.80;89.00;93292.69;5054186;28;20029;-79
2022/12/26 09:22:51;;;;;;;2.60;1.55;;;;;;;9.61;90.28;93293.47;5035490;28;20083;-78
2022/12/26 09:25:22;;;;;;;2.80;1.63;;;;;;;9.50;90.47;93292.66;5054686;28;20123;-78
2022/12/26 09:27:48;;;;;;;2.65;1.80;;;;;;;9.54;91.48;93291.09;5057637;28;20331;-78
2022/12/26 09:30:15;;;;;;;2.58;1.70;;;;;;;9.75;91.73;93290.09;5057347;28;20033;-78
2022/12/26 09:32:41;;;;;;;2.38;1.50;;;;;;;10.10;88.49;93303.41;5057506;28;20049;-78
2022/12/26 09:35:07;;;;;;;2.45;1.50;;;;;;;10.18;86.85;93303.69;5057424;28;20125;-78
2022/12/26 09:37:33;;;;;;;2.35;1.50;;;;;;;10.35;87.03;93302.63;5057655;28;20047;-78
2022/12/26 09:39:58;;;;;;;2.25;1.40;;;;;;;10.63;84.79;93304.69;5059582;28;20033;-78
2022/12/26 09:42:56;;;;;;;1.80;1.30;;;;;;;11.15;81.46;93301.88;5058815;28;20033;-79
2022/12/26 09:45:41;;;;;;;2.15;1.40;;;;;;;11.16;81.36;93301.59;5046688;28;20701;-79
2022/12/26 09:48:28;;;;;;;2.42;1.60;;;;;;;11.44;80.97;93297.53;5058825;28;20486;-79
2022/12/26 09:50:55;;;;;;;5.10;3.08;;;;;;;12.41;81.36;93305.78;5059051;28;20494;-79
2022/12/26 09:53:34;;;;;;;3.45;1.77;;;;;;;13.20;74.30;93303.59;5059899;28;20089;-79
2022/12/26 09:56:07;;;;;;;1.75;1.30;;;;;;;14.17;67.55;93312.00;5041652;28;20245;-79
2022/12/26 09:58:38;;;;;;;3.55;1.90;;;;;;;13.93;65.07;93294.47;5058239;28;20036;-79
2022/12/26 10:01:12;;;;;;;2.50;1.70;;;;;;;13.48;63.21;93294.06;5057524;28;20037;-78
2022/12/26 10:03:50;;;;;;;2.47;1.60;;;;;;;13.31;61.44;93289.28;5057778;28;20093;-78
2022/12/26 10:06:21;;;;;;;3.17;2.17;;;;;;;13.68;64.03;93293.00;5040508;28;20432;-78
2022/12/26 10:09:26;;;;;;;4.25;2.70;;;;;;;14.38;63.23;93299.28;5058347;28;20414;-78
2022/12/26 10:12:04;;;;;;;3.08;1.77;;;;;;;14.80;56.60;93296.75;5022079;28;20398;-78
2022/12/26 10:14:53;;;;;;;3.22;1.90;;;;;;;15.00;57.35;93288.47;5058280;28;20406;-78
2022/12/26 10:17:31;;;;;;;2.50;1.58;;;;;;;14.04;57.04;93283.78;5056851;28;20075;-77
2022/12/26 10:20:22;;;;;;;2.53;1.60;;;;;;;13.59;58.77;93286.03;5058003;28;20033;-78
2022/12/26 10:23:09;;;;;;;4.03;2.60;;;;;;;13.31;62.83;93288.53;5055861;28;20040;-78
2022/12/26 10:25:54;;;;;;;3.38;2.10;;;;;;;12.89;62.96;93275.03;5057417;28;20482;-78
2022/12/26 10:28:34;;;;;;;4.40;2.30;;;;;;;12.73;63.37;93283.41;5067479;28;20053;-77
2022/12/26 10:31:05;;;;;;;4.65;2.20;;;;;;;12.66;62.78;93279.25;5070928;28;20117;-77
2022/12/26 10:33:43;;;;;;;4.45;1.90;;;;;;;12.69;63.50;93283.94;5066694;28;20098;-77
2022/12/26 10:36:25;;;;;;;3.25;2.08;;;;;;;12.33;62.72;93286.13;5046503;28;20029;-78
2022/12/26 10:38:54;;;;;;;3.42;2.28;;;;;;;12.53;63.55;93285.16;5057628;28;20060;-78
2022/12/26 10:41:26;;;;;;;7.63;3.13;;;;;;;12.50;63.84;93276.00;5055285;28;20501;-78
2022/12/26 10:43:52;;;;;;;;;;;;;;;12.12;64.95;93280.28;5056163;28;20147;-78
2022/12/26 10:46:43;;;;;;;4.53;2.88;;;;;;;12.17;68.40;93280.25;5056830;28;20004;-77
2022/12/26 10:49:11;;;;;;;4.78;3.00;;;;;;;12.18;67.30;93289.69;5037573;28;20041;-78
2022/12/26 10:51:37;;;;;;;4.65;2.90;;;;;;;12.29;66.39;93285.13;5056888;28;20033;-78
2022/12/26 10:54:13;;;;;;;4.30;2.72;;;;;;;12.25;67.87;93274.41;5056800;28;20051;-78
2022/12/26 10:56:39;;;;;;;4.85;2.75;;;;;;;12.26;66.69;93278.59;5057724;28;20493;-78
2022/12/26 10:59:08;;;;;;;4.25;2.60;;;;;;;12.16;66.02;93270.81;5056756;28;20148;-78
2022/12/26 11:01:46;;;;;;;3.03;1.75;;;;;;;11.89;65.02;93276.56;5057108;28;20033;-78
2022/12/26 11:04:21;;;;;;;2.97;1.80;;;;;;;11.65;66.62;93271.97;5039098;28;20041;-78
2022/12/26 11:06:51;;;;;;;2.83;1.80;;;;;;;11.87;65.75;93279.44;5057810;28;20036;-78
2022/12/26 11:09:40;;;;;;;3.00;1.90;;;;;;;11.63;66.23;93268.03;5038922;28;20068;-78
2022/12/26 11:12:19;;;;;;;6.85;4.97;;;;;;;11.27;72.17;93265.66;5057000;28;20044;-78
2022/12/26 11:14:45;;;;;;;12.00;8.63;;;;;;;10.88;73.24;93282.06;5038235;28;20041;-77
2022/12/26 11:17:27;;;;;;;6.20;3.40;;;;;;;10.41;70.70;93278.03;5056293;28;20111;-78
2022/12/26 11:20:29;;;;;;;5.70;3.38;;;;;;;10.34;75.39;93267.06;5055642;28;20536;-78
2022/12/26 11:23:20;;;;;;;5.30;3.80;;;;;;;10.24;77.17;93259.19;4993994;28;20058;-78
2022/12/26 11:25:56;;;;;;;4.68;3.13;;;;;;;10.43;75.06;93265.47;5053942;28;20498;-78
2022/12/26 11:28:33;;;;;;;4.35;2.75;;;;;;;10.36;74.13;93260.50;5020604;28;20076;-78
2022/12/26 11:31:04;;;;;;;4.05;2.47;;;;;;;10.05;74.14;93251.09;5055208;28;20037;-78
2022/12/26 11:33:43;;;;;;;4.45;2.78;;;;;;;9.96;74.29;93262.09;5038170;28;20076;-78
2022/12/26 11:36:14;;;;;;;8.90;5.10;;;;;;;9.96;75.29;93254.25;5071148;28;20398;-78
2022/12/26 11:38:47;;;;;;;4.07;2.55;;;;;;;9.89;76.21;93251.13;5037992;28;20040;-78
2022/12/26 11:41:30;;;;;;;5.68;3.17;;;;;;;9.63;79.05;93255.56;5053766;28;20037;-78
2022/12/26 11:44:08;;;;;;;5.05;3.10;;;;;;;9.31;81.21;93259.19;5054345;28;20033;-78
2022/12/26 11:46:39;;;;;;;5.35;3.38;;;;;;;9.89;81.29;93250.34;5053536;28;20037;-78
2022/12/26 11:49:14;;;;;;;3.75;2.30;;;;;;;10.67;74.33;93251.75;5052898;28;20051;-78
2022/12/26 11:51:45;;;;;;;2.70;1.67;;;;;;;11.49;70.89;93240.88;5053787;28;20118;-78
2022/12/26 11:54:25;;;;;;;2.90;1.90;;;;;;;12.06;67.53;93240.19;5054392;28;20493;-78
2022/12/26 11:57:21;;;;;;;3.05;1.95;;;;;;;12.43;61.83;93230.13;5053901;28;20051;-77
2022/12/26 11:59:48;;;;;;;3.20;1.80;;;;;;;12.69;59.45;93235.88;5041201;28;20439;-77
2022/12/26 12:02:18;;;;;;;3.03;1.70;;;;;;;13.21;59.52;93236.81;5069368;28;20496;-78
2022/12/26 12:04:46;;;;;;;3.35;1.80;;;;;;;13.39;58.22;93227.38;5054110;28;20390;-78
2022/12/26 12:07:30;;;;;;;2.88;1.60;;;;;;;12.82;58.78;93232.56;5054476;28;20104;-78
2022/12/26 12:10:20;;;;;;;2.45;1.60;;;;;;;12.29;59.98;93232.63;5034864;28;20059;-78
2022/12/26 12:12:59;;;;;;;3.83;2.28;;;;;;;12.16;63.09;93231.44;5052692;28;20033;-78
2022/12/26 12:15:35;;;;;;;1.58;1.27;;;;;;;11.83;58.87;93230.41;5035793;28;20118;-78
2022/12/26 12:18:26;;;;;;;2.42;1.42;;;;;;;11.77;59.88;93229.63;5055078;28;20068;-78
2022/12/26 12:21:16;;;;;;;4.72;1.40;;;;;;;11.73;60.66;93226.03;5053950;28;20028;-77
2022/12/26 12:24:16;;;;;;;35.22;22.05;;;;;;;11.41;63.85;93229.91;5054432;28;20037;-78
2022/12/26 12:27:07;;;;;;;32.00;20.30;;;;;;;10.98;67.72;93227.00;5055078;28;20509;-78
2022/12/26 12:29:48;;;;;;;4.07;2.70;;;;;;;10.99;65.09;93225.97;5022925;28;20045;-78
2022/12/26 12:32:55;;;;;;;2.83;1.70;;;;;;;10.75;64.97;93219.78;5054752;28;20458;-78
2022/12/26 12:35:52;;;;;;;2.67;1.42;;;;;;;10.59;65.10;93216.47;5054621;28;20118;-77
2022/12/26 12:38:32;;;;;;;3.00;1.90;;;;;;;11.01;64.85;93209.97;5053471;28;20386;-77
2022/12/26 12:41:04;;;;;;;4.20;1.90;;;;;;;11.37;64.69;93201.88;5054700;28;20558;-79
2022/12/26 12:43:40;;;;;;;4.88;2.60;;;;;;;11.59;65.78;93198.84;5036886;28;20044;-77
2022/12/26 12:46:22;;;;;;;3.72;2.33;;;;;;;11.70;65.74;93195.06;5055435;28;20041;-77
2022/12/26 12:49:09;;;;;;;3.80;2.30;;;;;;;11.58;66.09;93192.81;5055313;28;20040;-77
2022/12/26 12:51:41;;;;;;;3.70;2.30;;;;;;;11.83;65.79;93183.19;5055078;28;20061;-77
2022/12/26 12:54:30;;;;;;;4.18;2.42;;;;;;;11.99;65.40;93183.84;5037748;28;20052;-78
2022/12/26 12:57:50;;;;;;;5.10;2.95;;;;;;;12.69;62.26;93183.34;5056182;28;20033;-77
2022/12/26 13:00:22;;;;;;;4.15;2.10;;;;;;;12.57;60.85;93180.34;4996742;28;20124;-77
2022/12/26 13:02:55;;;;;;;7.20;3.55;;;;;;;12.37;66.38;93173.47;4998406;28;20034;-77
2022/12/26 13:05:29;;;;;;;4.70;3.03;;;;;;;11.59;67.66;93185.72;5038562;28;20505;-77
2022/12/26 13:08:07;;;;;;;3.75;2.35;;;;;;;11.56;67.03;93183.66;5057446;28;20068;-77
2022/12/26 13:10:37;;;;;;;4.03;2.22;;;;;;;11.53;65.14;93187.63;5060201;28;20061;-77
2022/12/26 13:13:20;;;;;;;3.25;2.10;;;;;;;11.60;63.58;93187.31;5060565;28;20351;-77
2022/12/26 13:15:50;;;;;;;2.97;1.75;;;;;;;12.08;62.13;93184.81;5059987;28;20417;-78
2022/12/26 13:18:28;;;;;;;1.75;1.30;;;;;;;12.25;59.53;93187.00;5060213;28;20035;-78
2022/12/26 13:21:01;;;;;;;2.40;1.50;;;;;;;12.43;57.61;93188.91;5059866;28;20059;-78
2022/12/26 13:26:36;;;;;;;3.67;2.13;;;;;;;12.69;59.72;93181.50;5060531;28;20037;-78
2022/12/26 13:29:02;;;;;;;3.45;1.80;;;;;;;12.77;57.57;93174.84;5058930;28;20086;-78
2022/12/26 13:31:33;;;;;;;3.22;1.40;;;;;;;12.72;57.93;93174.88;5060590;28;20036;-78
2022/12/26 13:34:00;;;;;;;6.32;4.65;;;;;;;11.57;71.09;93179.97;5040982;28;20037;-77
2022/12/26 13:36:34;;;;;;;5.40;3.83;;;;;;;11.37;73.29;93179.09;5058475;28;20037;-78
2022/12/26 13:39:00;;;;;;;6.32;4.35;;;;;;;11.14;74.03;93175.28;5059218;28;20029;-78
2022/12/26 13:44:18;;;;;;;4.28;2.75;;;;;;;11.03;70.62;93182.47;5060126;28;20069;-78
2022/12/26 13:46:46;;;;;;;4.93;3.10;;;;;;;11.71;69.62;93175.69;5060363;28;20055;-78
2022/12/26 13:49:38;;;;;;;5.50;3.47;;;;;;;12.15;65.02;93177.38;5041971;28;20033;-78
2022/12/26 13:52:10;;;;;;;4.78;2.40;;;;;;;11.90;62.82;93161.91;5042717;28;20067;-78
2022/12/26 13:54:57;;;;;;;4.63;1.83;;;;;;;12.06;61.21;93160.69;5060401;28;20036;-78
2022/12/26 13:57:41;;;;;;;2.97;1.50;;;;;;;11.67;61.15;93162.31;5072788;28;20048;-78
2022/12/26 14:00:15;;;;;;;2.10;1.30;;;;;;;11.76;59.35;93152.03;5041806;28;20151;-78
2022/12/26 14:03:14;;;;;;;2.72;1.70;;;;;;;12.15;58.05;93151.13;5059222;28;20036;-78
2022/12/26 14:05:46;;;;;;;2.67;1.70;;;;;;;12.34;59.98;93150.41;5057784;28;20037;-78
2022/12/26 14:08:37;;;;;;;3.53;1.80;;;;;;;12.31;59.82;93159.63;5057576;28;20040;-78
2022/12/26 14:11:41;;;;;;;3.90;2.28;;;;;;;11.85;64.06;93160.84;5038177;28;20572;-77